Allensville, PA

1:52 AM EST on March 01, 2015 (GMT -0500)
big valley | Change Station
CLOSE
Current Station
Personal Weather Station
Location: Belleville, PA
Elevation: 873 ft
Nearby Weather Stations
Active Advisory: Winter Weather Advisory

Elev 873 ft 40.62 °N, 77.71 °W | Updated 13 minutes ago

Overcast
Overcast
11.3 °F
Feels Like 11 °F
N
0.0
Wind Variable Wind from West

Today
High -- | Low -- °F
--% Chance of Precip.
Yesterday
High -- | Low -- °F
Precip. -- in
6:45 AM 6:01 PM
Waxing Gibbous, 83% visible
Pressure 30.57 in
Visibility 10.0 miles
Clouds Scattered Clouds 7000 ft
Overcast 8000 ft
Windchill 11 °F
Dew Point 3 °F
Humidity 68%
Rainfall 0.00 in
Snow Depth Not available.
UV 0 out of 12
Pollen .50 out of 12
Air Quality Not available.
Flu Activity Not available.
METAR KUNV 010635Z AUTO 00000KT 10SM SCT070 OVC080 M09/M17 A3057 RMK AO2 T10921167

More Conditions Fewer Conditions

Pressure 30.57 in
Visibility 10.0 miles
Clouds Scattered Clouds 7000 ft
Overcast 8000 ft
Windchill 11 °F
Dew Point 3 °F
Humidity 68%
Rainfall 0.00 in
Snow Depth Not available.
UV 0 out of 12
Pollen .50 out of 12
Air Quality Not available.
Flu Activity Not available.
METAR KUNV 010635Z AUTO 00000KT 10SM SCT070 OVC080 M09/M17 A3057 RMK AO2 T10921167

More Conditions Fewer Conditions

10-Day Weather Forecast

Almanac

Astronomy

Mar. 01, 2015 Rise Set
Actual Time
Civil Twilight
Nautical Twilight
Astronomical Twilight
Moon
Length of Visible Light
Length of Day
Tomorrow will be .
, % of the Moon is Illuminated

Today's Extremes

State Highs State Lows

Community

WunderPhotos

Upload Photos

1,801,345 photos uploaded!

WunderBlogs® & News

Nearby

Air Quality

  Air Quality AQ Index Pollutant
Not available.

Snow Depth

Station Depth Elevation

Earthquake Activity

City Distance Mag. Time & Date
Minimum magnitude displayed is 2.5.

Coastal Water Temperatures

Place Temperature

Nearby Weather Stations

Winter Weather Advisory
Statement as of 9:33 PM EST on February 28, 2015

... Winter Weather Advisory now in effect from 5 am Sunday to 2 am
EST Monday...

* locations... the central mountains and middle Susquehanna valley.

* Hazard types... snow.

* Snow accumulations... 2 to 4 inches.

* Timing... light snow will overspread the region Sunday morning
and continue Sunday afternoon. Most areas will see nothing more
than flurries after sunset on Sunday... and all snow will end in
the pre dawn hours Monday.

* Impacts... hazardous travel from snow or slush covered roads and
poor visibility at times.

Precautionary/preparedness actions...

Hazardous winter weather conditions are expected or occurring.
Use caution if traveling. For the latest weather information... go
to weather.Gov/statecollege or monitor NOAA Weather Radio.

Report snow or ice accumulation to the National Weather Service
State College by sending an email to ctp.Stormreports@noaa.Gov...
posting to the NWS State College facebook Page... or tweet
@nwsstatecollege with the hashtag c... T... p... W... x.